sensor_id;sensor_type;location;lat;lon;timestamp;P1;durP1;ratioP1;P2;durP2;ratioP2
35667;SDS011;22158;59.280;17.806;2022-08-05T00:02:23;10.57;;;9.20;;
35667;SDS011;22158;59.280;17.806;2022-08-05T00:04:49;12.50;;;9.45;;
35667;SDS011;22158;59.280;17.806;2022-08-05T00:07:14;11.88;;;9.95;;
35667;SDS011;22158;59.280;17.806;2022-08-05T00:09:40;12.60;;;9.80;;
35667;SDS011;22158;59.280;17.806;2022-08-05T00:12:06;11.80;;;9.35;;
35667;SDS011;22158;59.280;17.806;2022-08-05T00:14:32;11.88;;;9.50;;
35667;SDS011;22158;59.280;17.806;2022-08-05T00:16:57;12.75;;;9.63;;
35667;SDS011;22158;59.280;17.806;2022-08-05T00:19:24;13.25;;;9.15;;
35667;SDS011;22158;59.280;17.806;2022-08-05T00:21:50;10.48;;;9.38;;
35667;SDS011;22158;59.280;17.806;2022-08-05T00:24:16;11.60;;;10.13;;
35667;SDS011;22158;59.280;17.806;2022-08-05T00:26:42;12.75;;;10.35;;
35667;SDS011;22158;59.280;17.806;2022-08-05T00:29:07;11.25;;;9.52;;
35667;SDS011;22158;59.280;17.806;2022-08-05T00:31:33;13.52;;;9.13;;
35667;SDS011;22158;59.280;17.806;2022-08-05T00:33:59;12.07;;;10.48;;
35667;SDS011;22158;59.280;17.806;2022-08-05T00:36:24;14.65;;;11.50;;
35667;SDS011;22158;59.280;17.806;2022-08-05T00:38:50;14.88;;;11.10;;
35667;SDS011;22158;59.280;17.806;2022-08-05T00:41:26;14.65;;;10.88;;
35667;SDS011;22158;59.280;17.806;2022-08-05T00:43:56;18.60;;;11.40;;
35667;SDS011;22158;59.280;17.806;2022-08-05T00:46:22;15.77;;;11.23;;
35667;SDS011;22158;59.280;17.806;2022-08-05T00:48:48;13.15;;;11.80;;
35667;SDS011;22158;59.280;17.806;2022-08-05T00:51:14;19.52;;;10.77;;
35667;SDS011;22158;59.280;17.806;2022-08-05T00:53:40;15.88;;;11.13;;
35667;SDS011;22158;59.280;17.806;2022-08-05T00:56:06;13.73;;;11.25;;
35667;SDS011;22158;59.280;17.806;2022-08-05T00:58:32;13.18;;;11.32;;
35667;SDS011;22158;59.280;17.806;2022-08-05T01:00:57;15.85;;;11.32;;
35667;SDS011;22158;59.280;17.806;2022-08-05T01:03:23;13.38;;;10.60;;
35667;SDS011;22158;59.280;17.806;2022-08-05T01:05:53;14.18;;;11.00;;
35667;SDS011;22158;59.280;17.806;2022-08-05T01:08:18;12.93;;;10.90;;
35667;SDS011;22158;59.280;17.806;2022-08-05T01:10:54;13.50;;;10.88;;
35667;SDS011;22158;59.280;17.806;2022-08-05T01:16:17;14.13;;;11.13;;
35667;SDS011;22158;59.280;17.806;2022-08-05T01:19:00;13.43;;;11.40;;
35667;SDS011;22158;59.280;17.806;2022-08-05T01:27:12;14.27;;;10.60;;
35667;SDS011;22158;59.280;17.806;2022-08-05T01:29:51;12.30;;;10.68;;
35667;SDS011;22158;59.280;17.806;2022-08-05T01:32:24;14.63;;;11.20;;
35667;SDS011;22158;59.280;17.806;2022-08-05T01:34:59;14.05;;;10.82;;
35667;SDS011;22158;59.280;17.806;2022-08-05T01:37:39;15.07;;;11.65;;
35667;SDS011;22158;59.280;17.806;2022-08-05T01:40:13;12.27;;;10.18;;
35667;SDS011;22158;59.280;17.806;2022-08-05T01:42:41;14.35;;;11.02;;
35667;SDS011;22158;59.280;17.806;2022-08-05T01:45:08;14.05;;;11.63;;
35667;SDS011;22158;59.280;17.806;2022-08-05T01:47:37;12.32;;;10.88;;
35667;SDS011;22158;59.280;17.806;2022-08-05T01:50:05;14.55;;;11.40;;
35667;SDS011;22158;59.280;17.806;2022-08-05T01:52:51;15.32;;;12.25;;
35667;SDS011;22158;59.280;17.806;2022-08-05T01:55:21;15.50;;;11.55;;
35667;SDS011;22158;59.280;17.806;2022-08-05T01:57:49;12.30;;;10.88;;
35667;SDS011;22158;59.280;17.806;2022-08-05T02:00:17;15.45;;;11.30;;
35667;SDS011;22158;59.280;17.806;2022-08-05T02:02:49;13.45;;;12.02;;
35667;SDS011;22158;59.280;17.806;2022-08-05T02:05:20;13.48;;;11.98;;
35667;SDS011;22158;59.280;17.806;2022-08-05T02:07:49;12.55;;;11.27;;
35667;SDS011;22158;59.280;17.806;2022-08-05T02:10:15;12.95;;;11.05;;
35667;SDS011;22158;59.280;17.806;2022-08-05T02:15:33;15.13;;;12.38;;
35667;SDS011;22158;59.280;17.806;2022-08-05T02:18:04;13.52;;;11.65;;
35667;SDS011;22158;59.280;17.806;2022-08-05T02:20:48;14.10;;;11.75;;
35667;SDS011;22158;59.280;17.806;2022-08-05T02:23:19;17.58;;;11.93;;
35667;SDS011;22158;59.280;17.806;2022-08-05T02:25:50;13.88;;;11.98;;
35667;SDS011;22158;59.280;17.806;2022-08-05T02:28:22;14.18;;;12.35;;
35667;SDS011;22158;59.280;17.806;2022-08-05T02:30:52;14.95;;;11.00;;
35667;SDS011;22158;59.280;17.806;2022-08-05T02:33:21;16.25;;;11.38;;
35667;SDS011;22158;59.280;17.806;2022-08-05T02:35:48;16.00;;;12.70;;
35667;SDS011;22158;59.280;17.806;2022-08-05T02:38:14;15.60;;;13.07;;
35667;SDS011;22158;59.280;17.806;2022-08-05T02:40:42;18.98;;;12.73;;
35667;SDS011;22158;59.280;17.806;2022-08-05T02:43:10;13.73;;;11.55;;
35667;SDS011;22158;59.280;17.806;2022-08-05T02:45:38;15.68;;;13.90;;
35667;SDS011;22158;59.280;17.806;2022-08-05T02:48:05;16.00;;;11.98;;
35667;SDS011;22158;59.280;17.806;2022-08-05T02:50:32;20.55;;;12.13;;
35667;SDS011;22158;59.280;17.806;2022-08-05T02:53:00;13.55;;;11.35;;
35667;SDS011;22158;59.280;17.806;2022-08-05T02:55:26;14.07;;;12.63;;
35667;SDS011;22158;59.280;17.806;2022-08-05T02:57:53;16.95;;;11.88;;
35667;SDS011;22158;59.280;17.806;2022-08-05T03:00:20;16.85;;;12.20;;
35667;SDS011;22158;59.280;17.806;2022-08-05T03:02:46;14.23;;;11.35;;
35667;SDS011;22158;59.280;17.806;2022-08-05T03:05:13;16.17;;;12.90;;
35667;SDS011;22158;59.280;17.806;2022-08-05T03:07:40;16.08;;;12.50;;
35667;SDS011;22158;59.280;17.806;2022-08-05T03:10:06;14.38;;;12.13;;
35667;SDS011;22158;59.280;17.806;2022-08-05T03:15:00;15.65;;;13.60;;
35667;SDS011;22158;59.280;17.806;2022-08-05T03:17:26;19.50;;;13.02;;
35667;SDS011;22158;59.280;17.806;2022-08-05T03:19:51;14.82;;;12.85;;
35667;SDS011;22158;59.280;17.806;2022-08-05T03:22:17;20.33;;;12.98;;
35667;SDS011;22158;59.280;17.806;2022-08-05T03:24:43;19.55;;;13.38;;
35667;SDS011;22158;59.280;17.806;2022-08-05T03:27:10;18.45;;;13.55;;
35667;SDS011;22158;59.280;17.806;2022-08-05T03:29:37;16.55;;;13.07;;
35667;SDS011;22158;59.280;17.806;2022-08-05T03:32:05;14.15;;;11.75;;
35667;SDS011;22158;59.280;17.806;2022-08-05T03:34:32;19.85;;;13.15;;
35667;SDS011;22158;59.280;17.806;2022-08-05T03:36:59;16.45;;;13.45;;
35667;SDS011;22158;59.280;17.806;2022-08-05T03:39:25;16.27;;;12.48;;
35667;SDS011;22158;59.280;17.806;2022-08-05T03:41:51;17.35;;;12.07;;
35667;SDS011;22158;59.280;17.806;2022-08-05T03:44:16;15.20;;;12.52;;
35667;SDS011;22158;59.280;17.806;2022-08-05T03:46:42;14.73;;;12.75;;
35667;SDS011;22158;59.280;17.806;2022-08-05T03:49:08;16.70;;;14.70;;
35667;SDS011;22158;59.280;17.806;2022-08-05T03:51:55;16.13;;;13.35;;
35667;SDS011;22158;59.280;17.806;2022-08-05T03:54:30;14.15;;;12.65;;
35667;SDS011;22158;59.280;17.806;2022-08-05T03:57:01;17.83;;;13.73;;
35667;SDS011;22158;59.280;17.806;2022-08-05T03:59:33;16.25;;;12.65;;
35667;SDS011;22158;59.280;17.806;2022-08-05T04:02:03;20.73;;;14.52;;
35667;SDS011;22158;59.280;17.806;2022-08-05T04:04:31;20.70;;;14.48;;
35667;SDS011;22158;59.280;17.806;2022-08-05T04:06:58;17.77;;;14.30;;
35667;SDS011;22158;59.280;17.806;2022-08-05T04:09:24;21.40;;;15.27;;
35667;SDS011;22158;59.280;17.806;2022-08-05T04:11:51;21.60;;;14.70;;
35667;SDS011;22158;59.280;17.806;2022-08-05T04:14:17;20.10;;;14.05;;
35667;SDS011;22158;59.280;17.806;2022-08-05T04:16:43;20.58;;;14.73;;
35667;SDS011;22158;59.280;17.806;2022-08-05T04:19:10;22.15;;;15.93;;
35667;SDS011;22158;59.280;17.806;2022-08-05T04:21:37;19.45;;;15.88;;
35667;SDS011;22158;59.280;17.806;2022-08-05T04:24:03;26.23;;;15.73;;
35667;SDS011;22158;59.280;17.806;2022-08-05T04:26:29;18.25;;;15.88;;
35667;SDS011;22158;59.280;17.806;2022-08-05T04:28:55;16.38;;;13.93;;
35667;SDS011;22158;59.280;17.806;2022-08-05T04:31:21;16.48;;;13.95;;
35667;SDS011;22158;59.280;17.806;2022-08-05T04:33:46;20.58;;;15.60;;
35667;SDS011;22158;59.280;17.806;2022-08-05T04:36:13;21.65;;;16.98;;
35667;SDS011;22158;59.280;17.806;2022-08-05T04:38:40;19.52;;;16.38;;
35667;SDS011;22158;59.280;17.806;2022-08-05T04:41:07;21.55;;;16.48;;
35667;SDS011;22158;59.280;17.806;2022-08-05T04:43:33;22.95;;;16.67;;
35667;SDS011;22158;59.280;17.806;2022-08-05T04:45:58;20.15;;;16.52;;
35667;SDS011;22158;59.280;17.806;2022-08-05T04:48:24;19.30;;;15.85;;
35667;SDS011;22158;59.280;17.806;2022-08-05T04:50:50;21.50;;;17.67;;
35667;SDS011;22158;59.280;17.806;2022-08-05T04:53:17;23.25;;;16.80;;
35667;SDS011;22158;59.280;17.806;2022-08-05T04:55:43;25.33;;;18.40;;
35667;SDS011;22158;59.280;17.806;2022-08-05T04:58:11;19.17;;;15.73;;
35667;SDS011;22158;59.280;17.806;2022-08-05T05:00:39;17.50;;;14.98;;
35667;SDS011;22158;59.280;17.806;2022-08-05T05:03:05;21.33;;;16.02;;
35667;SDS011;22158;59.280;17.806;2022-08-05T05:05:32;19.98;;;15.68;;
35667;SDS011;22158;59.280;17.806;2022-08-05T05:08:00;17.40;;;15.45;;
35667;SDS011;22158;59.280;17.806;2022-08-05T05:10:26;20.80;;;16.73;;
35667;SDS011;22158;59.280;17.806;2022-08-05T05:12:53;21.05;;;16.98;;
35667;SDS011;22158;59.280;17.806;2022-08-05T05:15:18;19.52;;;16.25;;
35667;SDS011;22158;59.280;17.806;2022-08-05T05:17:44;23.17;;;16.75;;
35667;SDS011;22158;59.280;17.806;2022-08-05T05:20:11;22.02;;;15.70;;
35667;SDS011;22158;59.280;17.806;2022-08-05T05:22:37;22.23;;;17.75;;
35667;SDS011;22158;59.280;17.806;2022-08-05T05:25:03;21.95;;;18.40;;
35667;SDS011;22158;59.280;17.806;2022-08-05T05:27:30;21.67;;;19.10;;
35667;SDS011;22158;59.280;17.806;2022-08-05T05:29:57;19.73;;;16.30;;
35667;SDS011;22158;59.280;17.806;2022-08-05T05:32:23;20.45;;;18.08;;
35667;SDS011;22158;59.280;17.806;2022-08-05T05:34:49;23.08;;;17.13;;
35667;SDS011;22158;59.280;17.806;2022-08-05T05:37:15;21.50;;;17.38;;
35667;SDS011;22158;59.280;17.806;2022-08-05T05:39:41;20.98;;;16.63;;
35667;SDS011;22158;59.280;17.806;2022-08-05T05:42:07;22.83;;;18.05;;
35667;SDS011;22158;59.280;17.806;2022-08-05T05:44:32;24.52;;;20.17;;
35667;SDS011;22158;59.280;17.806;2022-08-05T05:46:58;23.70;;;18.52;;
35667;SDS011;22158;59.280;17.806;2022-08-05T05:49:24;23.98;;;18.83;;
35667;SDS011;22158;59.280;17.806;2022-08-05T05:51:51;21.02;;;17.48;;
35667;SDS011;22158;59.280;17.806;2022-08-05T05:54:17;18.00;;;16.10;;
35667;SDS011;22158;59.280;17.806;2022-08-05T05:56:43;22.38;;;16.58;;
35667;SDS011;22158;59.280;17.806;2022-08-05T05:59:08;19.83;;;16.52;;
35667;SDS011;22158;59.280;17.806;2022-08-05T06:01:35;18.50;;;15.40;;
35667;SDS011;22158;59.280;17.806;2022-08-05T06:04:02;23.75;;;17.20;;
35667;SDS011;22158;59.280;17.806;2022-08-05T06:06:28;22.60;;;16.45;;
35667;SDS011;22158;59.280;17.806;2022-08-05T06:08:54;23.65;;;16.23;;
35667;SDS011;22158;59.280;17.806;2022-08-05T06:11:20;21.45;;;15.65;;
35667;SDS011;22158;59.280;17.806;2022-08-05T06:13:45;17.80;;;13.50;;
35667;SDS011;22158;59.280;17.806;2022-08-05T06:16:11;19.95;;;14.35;;
35667;SDS011;22158;59.280;17.806;2022-08-05T06:18:36;16.42;;;13.60;;
35667;SDS011;22158;59.280;17.806;2022-08-05T06:21:02;19.33;;;14.32;;
35667;SDS011;22158;59.280;17.806;2022-08-05T06:23:28;17.38;;;13.68;;
35667;SDS011;22158;59.280;17.806;2022-08-05T06:25:55;15.57;;;13.40;;
35667;SDS011;22158;59.280;17.806;2022-08-05T06:28:21;16.10;;;12.20;;
35667;SDS011;22158;59.280;17.806;2022-08-05T06:30:47;14.15;;;12.13;;
35667;SDS011;22158;59.280;17.806;2022-08-05T06:33:13;13.13;;;11.70;;
35667;SDS011;22158;59.280;17.806;2022-08-05T06:35:38;17.70;;;12.70;;
35667;SDS011;22158;59.280;17.806;2022-08-05T06:38:04;13.80;;;12.25;;
35667;SDS011;22158;59.280;17.806;2022-08-05T06:40:30;14.00;;;10.80;;
35667;SDS011;22158;59.280;17.806;2022-08-05T06:42:56;17.48;;;11.60;;
35667;SDS011;22158;59.280;17.806;2022-08-05T06:45:21;12.80;;;10.45;;
35667;SDS011;22158;59.280;17.806;2022-08-05T06:47:47;13.93;;;11.32;;
35667;SDS011;22158;59.280;17.806;2022-08-05T06:50:13;13.05;;;11.52;;
35667;SDS011;22158;59.280;17.806;2022-08-05T06:52:38;14.13;;;11.15;;
35667;SDS011;22158;59.280;17.806;2022-08-05T06:55:04;15.57;;;11.00;;
35667;SDS011;22158;59.280;17.806;2022-08-05T06:57:31;13.52;;;11.75;;
35667;SDS011;22158;59.280;17.806;2022-08-05T06:59:56;14.68;;;11.18;;
35667;SDS011;22158;59.280;17.806;2022-08-05T07:02:22;12.27;;;10.63;;
35667;SDS011;22158;59.280;17.806;2022-08-05T07:04:48;11.85;;;10.52;;
35667;SDS011;22158;59.280;17.806;2022-08-05T07:07:13;13.80;;;10.55;;
35667;SDS011;22158;59.280;17.806;2022-08-05T07:09:39;11.60;;;10.45;;
35667;SDS011;22158;59.280;17.806;2022-08-05T07:12:05;13.38;;;11.60;;
35667;SDS011;22158;59.280;17.806;2022-08-05T07:14:31;11.02;;;9.93;;
35667;SDS011;22158;59.280;17.806;2022-08-05T07:17:15;12.40;;;9.88;;
35667;SDS011;22158;59.280;17.806;2022-08-05T07:19:40;10.55;;;9.48;;
35667;SDS011;22158;59.280;17.806;2022-08-05T07:22:06;16.05;;;11.05;;
35667;SDS011;22158;59.280;17.806;2022-08-05T07:24:32;14.20;;;10.27;;
35667;SDS011;22158;59.280;17.806;2022-08-05T07:26:58;10.85;;;8.70;;
35667;SDS011;22158;59.280;17.806;2022-08-05T07:29:23;10.50;;;9.40;;
35667;SDS011;22158;59.280;17.806;2022-08-05T07:31:49;11.07;;;9.15;;
35667;SDS011;22158;59.280;17.806;2022-08-05T07:34:15;11.90;;;9.13;;
35667;SDS011;22158;59.280;17.806;2022-08-05T07:36:40;10.02;;;9.02;;
35667;SDS011;22158;59.280;17.806;2022-08-05T07:39:07;11.23;;;8.73;;
35667;SDS011;22158;59.280;17.806;2022-08-05T07:41:33;9.65;;;8.55;;
35667;SDS011;22158;59.280;17.806;2022-08-05T07:44:00;11.60;;;8.57;;
35667;SDS011;22158;59.280;17.806;2022-08-05T07:46:27;9.80;;;8.75;;
35667;SDS011;22158;59.280;17.806;2022-08-05T07:48:55;11.57;;;9.32;;
35667;SDS011;22158;59.280;17.806;2022-08-05T07:51:22;10.40;;;9.25;;
35667;SDS011;22158;59.280;17.806;2022-08-05T07:53:48;10.32;;;9.00;;
35667;SDS011;22158;59.280;17.806;2022-08-05T07:56:14;8.35;;;7.47;;
35667;SDS011;22158;59.280;17.806;2022-08-05T07:58:39;9.90;;;6.75;;
35667;SDS011;22158;59.280;17.806;2022-08-05T08:01:05;9.27;;;7.57;;
35667;SDS011;22158;59.280;17.806;2022-08-05T08:03:31;10.90;;;7.05;;
35667;SDS011;22158;59.280;17.806;2022-08-05T08:05:57;9.45;;;7.53;;
35667;SDS011;22158;59.280;17.806;2022-08-05T08:08:22;7.25;;;6.55;;
35667;SDS011;22158;59.280;17.806;2022-08-05T08:10:48;7.22;;;5.47;;
35667;SDS011;22158;59.280;17.806;2022-08-05T08:13:14;7.85;;;6.40;;
35667;SDS011;22158;59.280;17.806;2022-08-05T08:15:40;9.30;;;6.30;;
35667;SDS011;22158;59.280;17.806;2022-08-05T08:18:05;6.75;;;5.40;;
35667;SDS011;22158;59.280;17.806;2022-08-05T08:20:31;7.95;;;5.95;;
35667;SDS011;22158;59.280;17.806;2022-08-05T08:22:58;11.07;;;5.60;;
35667;SDS011;22158;59.280;17.806;2022-08-05T08:25:25;5.65;;;5.15;;
35667;SDS011;22158;59.280;17.806;2022-08-05T08:27:55;5.85;;;5.25;;
35667;SDS011;22158;59.280;17.806;2022-08-05T08:30:20;6.75;;;5.57;;
35667;SDS011;22158;59.280;17.806;2022-08-05T08:32:46;7.13;;;5.40;;
35667;SDS011;22158;59.280;17.806;2022-08-05T08:35:12;5.82;;;5.05;;
35667;SDS011;22158;59.280;17.806;2022-08-05T08:37:37;5.15;;;4.70;;
35667;SDS011;22158;59.280;17.806;2022-08-05T08:40:03;6.03;;;4.47;;
35667;SDS011;22158;59.280;17.806;2022-08-05T08:42:30;6.53;;;4.63;;
35667;SDS011;22158;59.280;17.806;2022-08-05T08:44:56;5.93;;;4.63;;
35667;SDS011;22158;59.280;17.806;2022-08-05T08:47:23;5.35;;;3.97;;
35667;SDS011;22158;59.280;17.806;2022-08-05T08:49:51;5.35;;;4.85;;
35667;SDS011;22158;59.280;17.806;2022-08-05T08:52:22;5.22;;;4.60;;
35667;SDS011;22158;59.280;17.806;2022-08-05T08:54:50;5.18;;;4.68;;
35667;SDS011;22158;59.280;17.806;2022-08-05T08:57:17;6.18;;;3.65;;
35667;SDS011;22158;59.280;17.806;2022-08-05T08:59:42;4.72;;;3.95;;
35667;SDS011;22158;59.280;17.806;2022-08-05T09:02:08;5.55;;;3.88;;
35667;SDS011;22158;59.280;17.806;2022-08-05T09:04:35;4.30;;;3.90;;
35667;SDS011;22158;59.280;17.806;2022-08-05T09:07:05;5.38;;;4.22;;
35667;SDS011;22158;59.280;17.806;2022-08-05T09:09:32;5.00;;;4.47;;
35667;SDS011;22158;59.280;17.806;2022-08-05T09:11:59;10.80;;;4.40;;
35667;SDS011;22158;59.280;17.806;2022-08-05T09:14:26;5.97;;;4.47;;
35667;SDS011;22158;59.280;17.806;2022-08-05T09:16:51;5.00;;;4.55;;
35667;SDS011;22158;59.280;17.806;2022-08-05T09:19:17;5.57;;;4.57;;
35667;SDS011;22158;59.280;17.806;2022-08-05T09:21:43;5.97;;;3.70;;
35667;SDS011;22158;59.280;17.806;2022-08-05T09:24:09;5.70;;;4.38;;
35667;SDS011;22158;59.280;17.806;2022-08-05T09:26:37;6.28;;;4.28;;
35667;SDS011;22158;59.280;17.806;2022-08-05T09:29:04;5.40;;;3.88;;
35667;SDS011;22158;59.280;17.806;2022-08-05T09:31:31;4.32;;;3.92;;
35667;SDS011;22158;59.280;17.806;2022-08-05T09:34:02;7.72;;;4.78;;
35667;SDS011;22158;59.280;17.806;2022-08-05T09:39:16;5.00;;;4.22;;
35667;SDS011;22158;59.280;17.806;2022-08-05T09:41:59;5.80;;;4.03;;
35667;SDS011;22158;59.280;17.806;2022-08-05T09:45:04;5.75;;;4.75;;
35667;SDS011;22158;59.280;17.806;2022-08-05T09:47:19;5.05;;;4.53;;
35667;SDS011;22158;59.280;17.806;2022-08-05T09:49:48;5.30;;;3.92;;
35667;SDS011;22158;59.280;17.806;2022-08-05T09:52:33;4.47;;;3.40;;
35667;SDS011;22158;59.280;17.806;2022-08-05T09:55:04;5.10;;;4.15;;
35667;SDS011;22158;59.280;17.806;2022-08-05T10:00:01;5.35;;;3.65;;
35667;SDS011;22158;59.280;17.806;2022-08-05T10:02:30;4.72;;;4.32;;
35667;SDS011;22158;59.280;17.806;2022-08-05T10:05:02;5.70;;;4.78;;
35667;SDS011;22158;59.280;17.806;2022-08-05T10:10:13;4.68;;;4.25;;
35667;SDS011;22158;59.280;17.806;2022-08-05T10:12:40;5.60;;;4.57;;
35667;SDS011;22158;59.280;17.806;2022-08-05T10:15:16;5.43;;;4.60;;
35667;SDS011;22158;59.280;17.806;2022-08-05T10:17:42;5.85;;;4.32;;
35667;SDS011;22158;59.280;17.806;2022-08-05T10:20:08;6.57;;;4.53;;
35667;SDS011;22158;59.280;17.806;2022-08-05T10:22:38;7.03;;;5.07;;
35667;SDS011;22158;59.280;17.806;2022-08-05T10:25:04;5.20;;;4.70;;
35667;SDS011;22158;59.280;17.806;2022-08-05T10:27:30;5.78;;;4.15;;
35667;SDS011;22158;59.280;17.806;2022-08-05T10:29:56;5.63;;;4.88;;
35667;SDS011;22158;59.280;17.806;2022-08-05T10:32:22;4.50;;;4.07;;
35667;SDS011;22158;59.280;17.806;2022-08-05T10:34:48;7.10;;;4.80;;
35667;SDS011;22158;59.280;17.806;2022-08-05T10:37:14;4.43;;;4.03;;
35667;SDS011;22158;59.280;17.806;2022-08-05T10:39:40;5.10;;;4.13;;
35667;SDS011;22158;59.280;17.806;2022-08-05T10:44:37;5.07;;;4.57;;
35667;SDS011;22158;59.280;17.806;2022-08-05T10:47:11;7.75;;;4.68;;
35667;SDS011;22158;59.280;17.806;2022-08-05T10:50:00;5.78;;;5.18;;
35667;SDS011;22158;59.280;17.806;2022-08-05T10:55:11;5.80;;;5.10;;
35667;SDS011;22158;59.280;17.806;2022-08-05T10:57:41;6.22;;;4.30;;
35667;SDS011;22158;59.280;17.806;2022-08-05T11:00:18;6.07;;;4.28;;
35667;SDS011;22158;59.280;17.806;2022-08-05T11:05:35;8.40;;;5.00;;
35667;SDS011;22158;59.280;17.806;2022-08-05T11:08:02;6.78;;;5.13;;
35667;SDS011;22158;59.280;17.806;2022-08-05T11:10:33;5.93;;;4.82;;
35667;SDS011;22158;59.280;17.806;2022-08-05T11:13:06;8.63;;;4.60;;
35667;SDS011;22158;59.280;17.806;2022-08-05T11:15:33;5.97;;;5.38;;
35667;SDS011;22158;59.280;17.806;2022-08-05T11:20:49;6.63;;;5.40;;
35667;SDS011;22158;59.280;17.806;2022-08-05T11:26:26;6.30;;;5.35;;
35667;SDS011;22158;59.280;17.806;2022-08-05T11:28:52;6.55;;;5.95;;
35667;SDS011;22158;59.280;17.806;2022-08-05T11:31:19;9.68;;;6.30;;
35667;SDS011;22158;59.280;17.806;2022-08-05T11:34:02;6.70;;;4.95;;
35667;SDS011;22158;59.280;17.806;2022-08-05T11:36:40;8.20;;;6.28;;
35667;SDS011;22158;59.280;17.806;2022-08-05T11:39:10;5.82;;;5.22;;
35667;SDS011;22158;59.280;17.806;2022-08-05T11:41:38;7.43;;;5.35;;
35667;SDS011;22158;59.280;17.806;2022-08-05T11:44:10;6.35;;;5.75;;
35667;SDS011;22158;59.280;17.806;2022-08-05T11:49:16;6.22;;;5.60;;
35667;SDS011;22158;59.280;17.806;2022-08-05T11:51:45;7.20;;;6.22;;
35667;SDS011;22158;59.280;17.806;2022-08-05T11:54:18;7.43;;;5.57;;
35667;SDS011;22158;59.280;17.806;2022-08-05T11:56:51;6.90;;;6.18;;
35667;SDS011;22158;59.280;17.806;2022-08-05T11:59:19;5.95;;;5.43;;
35667;SDS011;22158;59.280;17.806;2022-08-05T12:02:00;7.60;;;6.80;;
35667;SDS011;22158;59.280;17.806;2022-08-05T12:04:37;7.88;;;6.57;;
35667;SDS011;22158;59.280;17.806;2022-08-05T12:07:08;6.93;;;5.82;;
35667;SDS011;22158;59.280;17.806;2022-08-05T12:09:36;7.47;;;6.20;;
35667;SDS011;22158;59.280;17.806;2022-08-05T12:12:04;9.88;;;6.63;;
35667;SDS011;22158;59.280;17.806;2022-08-05T12:14:38;7.60;;;6.82;;
35667;SDS011;22158;59.280;17.806;2022-08-05T12:17:09;7.22;;;6.53;;
35667;SDS011;22158;59.280;17.806;2022-08-05T12:22:08;8.23;;;7.30;;
35667;SDS011;22158;59.280;17.806;2022-08-05T12:24:38;9.52;;;6.82;;
35667;SDS011;22158;59.280;17.806;2022-08-05T12:27:06;11.63;;;8.18;;
35667;SDS011;22158;59.280;17.806;2022-08-05T12:29:31;10.27;;;8.15;;
35667;SDS011;22158;59.280;17.806;2022-08-05T12:31:58;12.32;;;8.05;;
35667;SDS011;22158;59.280;17.806;2022-08-05T12:34:25;11.63;;;8.60;;
35667;SDS011;22158;59.280;17.806;2022-08-05T12:37:00;15.25;;;9.35;;
35667;SDS011;22158;59.280;17.806;2022-08-05T12:39:38;12.95;;;9.15;;
35667;SDS011;22158;59.280;17.806;2022-08-05T12:42:11;12.05;;;9.75;;
35667;SDS011;22158;59.280;17.806;2022-08-05T12:44:40;11.73;;;8.73;;
35667;SDS011;22158;59.280;17.806;2022-08-05T12:47:06;9.82;;;8.82;;
35667;SDS011;22158;59.280;17.806;2022-08-05T12:49:41;13.48;;;9.13;;
35667;SDS011;22158;59.280;17.806;2022-08-05T12:52:13;13.48;;;9.45;;
35667;SDS011;22158;59.280;17.806;2022-08-05T12:54:40;11.25;;;9.13;;
35667;SDS011;22158;59.280;17.806;2022-08-05T12:57:07;11.73;;;10.50;;
35667;SDS011;22158;59.280;17.806;2022-08-05T12:59:48;12.88;;;10.32;;
35667;SDS011;22158;59.280;17.806;2022-08-05T13:02:17;19.13;;;10.23;;
35667;SDS011;22158;59.280;17.806;2022-08-05T13:04:51;11.25;;;9.65;;
35667;SDS011;22158;59.280;17.806;2022-08-05T13:07:19;13.70;;;11.15;;
35667;SDS011;22158;59.280;17.806;2022-08-05T13:09:51;13.45;;;10.68;;
35667;SDS011;22158;59.280;17.806;2022-08-05T13:12:21;14.68;;;11.75;;
35667;SDS011;22158;59.280;17.806;2022-08-05T13:14:50;13.90;;;11.10;;
35667;SDS011;22158;59.280;17.806;2022-08-05T13:17:22;14.03;;;12.00;;
35667;SDS011;22158;59.280;17.806;2022-08-05T13:19:59;14.45;;;12.65;;
35667;SDS011;22158;59.280;17.806;2022-08-05T13:22:40;12.40;;;10.80;;
35667;SDS011;22158;59.280;17.806;2022-08-05T13:25:08;13.95;;;11.60;;
35667;SDS011;22158;59.280;17.806;2022-08-05T13:27:41;16.52;;;10.98;;
35667;SDS011;22158;59.280;17.806;2022-08-05T13:30:12;11.82;;;9.80;;
35667;SDS011;22158;59.280;17.806;2022-08-05T13:32:39;11.93;;;10.60;;
35667;SDS011;22158;59.280;17.806;2022-08-05T13:35:05;14.65;;;10.25;;
35667;SDS011;22158;59.280;17.806;2022-08-05T13:37:33;12.52;;;9.43;;
35667;SDS011;22158;59.280;17.806;2022-08-05T13:39:59;10.15;;;8.02;;
35667;SDS011;22158;59.280;17.806;2022-08-05T13:42:25;9.13;;;8.13;;
35667;SDS011;22158;59.280;17.806;2022-08-05T13:44:54;9.63;;;8.73;;
35667;SDS011;22158;59.280;17.806;2022-08-05T13:47:24;10.63;;;9.27;;
35667;SDS011;22158;59.280;17.806;2022-08-05T13:49:50;11.85;;;8.38;;
35667;SDS011;22158;59.280;17.806;2022-08-05T13:52:18;16.17;;;9.25;;
35667;SDS011;22158;59.280;17.806;2022-08-05T13:54:45;11.10;;;8.55;;
35667;SDS011;22158;59.280;17.806;2022-08-05T13:57:11;10.77;;;9.00;;
35667;SDS011;22158;59.280;17.806;2022-08-05T13:59:38;9.52;;;7.45;;
35667;SDS011;22158;59.280;17.806;2022-08-05T14:02:05;9.52;;;7.93;;
35667;SDS011;22158;59.280;17.806;2022-08-05T14:04:36;8.75;;;7.85;;
35667;SDS011;22158;59.280;17.806;2022-08-05T14:07:39;10.23;;;8.48;;
35667;SDS011;22158;59.280;17.806;2022-08-05T14:10:13;12.23;;;8.95;;
35667;SDS011;22158;59.280;17.806;2022-08-05T14:12:41;11.82;;;8.57;;
35667;SDS011;22158;59.280;17.806;2022-08-05T14:15:07;13.93;;;10.73;;
35667;SDS011;22158;59.280;17.806;2022-08-05T14:17:33;12.07;;;9.80;;
35667;SDS011;22158;59.280;17.806;2022-08-05T14:19:59;12.65;;;10.02;;
35667;SDS011;22158;59.280;17.806;2022-08-05T14:22:24;16.27;;;10.13;;
35667;SDS011;22158;59.280;17.806;2022-08-05T14:24:50;14.57;;;10.57;;
35667;SDS011;22158;59.280;17.806;2022-08-05T14:27:17;12.68;;;10.48;;
35667;SDS011;22158;59.280;17.806;2022-08-05T14:29:42;12.75;;;11.05;;
35667;SDS011;22158;59.280;17.806;2022-08-05T14:32:08;14.93;;;12.15;;
35667;SDS011;22158;59.280;17.806;2022-08-05T14:34:34;14.52;;;11.30;;
35667;SDS011;22158;59.280;17.806;2022-08-05T14:36:59;12.90;;;10.63;;
35667;SDS011;22158;59.280;17.806;2022-08-05T14:39:25;14.93;;;11.48;;
35667;SDS011;22158;59.280;17.806;2022-08-05T14:41:51;12.98;;;10.43;;
35667;SDS011;22158;59.280;17.806;2022-08-05T14:44:17;12.35;;;9.23;;
35667;SDS011;22158;59.280;17.806;2022-08-05T14:46:42;12.98;;;10.35;;
35667;SDS011;22158;59.280;17.806;2022-08-05T14:49:08;11.10;;;9.05;;
35667;SDS011;22158;59.280;17.806;2022-08-05T14:51:35;11.55;;;9.57;;
35667;SDS011;22158;59.280;17.806;2022-08-05T14:54:01;10.88;;;8.90;;
35667;SDS011;22158;59.280;17.806;2022-08-05T14:56:27;10.90;;;8.43;;
35667;SDS011;22158;59.280;17.806;2022-08-05T14:58:53;11.05;;;9.88;;
35667;SDS011;22158;59.280;17.806;2022-08-05T15:01:19;10.38;;;9.27;;
35667;SDS011;22158;59.280;17.806;2022-08-05T15:03:45;12.02;;;9.77;;
35667;SDS011;22158;59.280;17.806;2022-08-05T15:06:10;10.00;;;9.00;;